Time;durP1;ratioP1;P1;durP2;ratioP2;P2;SDS_P1;SDS_P2;PMS_P1;PMS_P2;Temp;Humidity;BMP_temperature;BMP_pressure;BME280_temperature;BME280_humidity;BME280_pressure;Samples;Min_cycle;Max_cycle;Signal;HPM_P1;HPM_P2
2023/06/20 00:00:53;;;;;;;;;;;21.70;53.80;;;18.04;100.00;95519.00;4941016;28;20388;-46
2023/06/20 00:03:19;;;;;;;;;;;21.60;54.40;;;18.06;100.00;95523.31;4948261;28;20228;-43
2023/06/20 00:05:45;;;;;;;;;;;21.60;54.80;;;18.06;100.00;95532.19;4954714;28;19968;-43
2023/06/20 00:08:11;;;;;;;;;;;21.50;55.00;;;18.01;100.00;95527.72;4954440;28;20276;-43
2023/06/20 00:10:37;;;;;;;;;;;21.50;55.60;;;17.99;100.00;95527.25;4945924;28;19914;-43
2023/06/20 00:13:03;;;;;;;;;;;21.40;55.20;;;17.94;100.00;95529.28;4936671;28;19976;-43
2023/06/20 00:15:29;;;;;;;;;;;21.40;55.60;;;17.96;100.00;95527.88;4946559;28;20005;-42
2023/06/20 00:17:59;;;;;;;;;;;21.40;55.60;;;17.94;100.00;95524.69;4962767;28;20012;-46
2023/06/20 00:20:27;;;;;;;;;;;21.40;55.80;;;17.98;100.00;95532.94;4945356;28;19910;-44
2023/06/20 00:22:54;;;;;;;;;;;21.40;55.90;;;17.97;100.00;95531.34;4941841;28;19919;-44
2023/06/20 00:25:19;;;;;;;;;;;21.40;56.00;;;17.99;100.00;95539.94;4944490;28;19915;-44
2023/06/20 00:27:45;;;;;;;;;;;21.30;56.20;;;17.97;100.00;95551.00;4948139;28;19916;-44
2023/06/20 00:30:12;;;;;;;;;;;21.40;56.30;;;17.98;100.00;95552.59;4957459;28;20566;-44
2023/06/20 00:32:38;;;;;;;;;;;21.40;56.40;;;17.97;100.00;95555.59;4946428;28;19910;-45
2023/06/20 00:35:04;;;;;;;;;;;21.30;56.60;;;17.99;100.00;95559.59;4955781;28;19921;-47
2023/06/20 00:37:30;;;;;;;;;;;21.40;56.70;;;18.01;100.00;95559.25;4945724;28;19964;-47
2023/06/20 00:39:55;;;;;;;;;;;21.40;56.80;;;17.99;100.00;95539.94;4940274;28;19957;-45
2023/06/20 00:42:23;;;;;;;;;;;21.40;56.90;;;17.98;100.00;95549.91;4952601;28;20365;-51
2023/06/20 00:44:52;;;;;;;;;;;21.40;57.00;;;17.95;100.00;95547.81;4940811;28;20088;-51
2023/06/20 00:47:19;;;;;;;;;;;21.40;57.20;;;17.98;100.00;95541.03;4957421;28;20033;-51
2023/06/20 00:49:50;;;;;;;;;;;21.40;57.90;;;17.97;100.00;95542.13;4947978;28;19910;-50
2023/06/20 00:52:21;;;;;;;;;;;21.40;57.40;;;17.98;100.00;95539.13;4946573;28;19917;-45
2023/06/20 00:54:48;;;;;;;;;;;21.40;57.40;;;17.98;100.00;95532.94;4940903;28;20387;-46
2023/06/20 00:57:19;;;;;;;;;;;21.40;57.50;;;17.98;100.00;95525.63;4947356;28;20396;-46
2023/06/20 00:59:47;;;;;;;;;;;21.40;57.50;;;17.99;100.00;95519.16;4950374;28;20296;-44
2023/06/20 01:02:15;;;;;;;;;;;21.40;57.60;;;18.00;100.00;95512.66;4952153;28;19913;-47
2023/06/20 01:04:46;;;;;;;;;;;21.50;57.70;;;17.99;100.00;95510.28;4942190;28;19914;-47
2023/06/20 01:07:24;;;;;;;;;;;21.50;57.80;;;17.94;100.00;95503.13;4954251;28;19914;-48
2023/06/20 01:10:24;;;;;;;;;;;21.50;57.80;;;17.86;100.00;95503.88;4943242;28;19921;-46
2023/06/20 01:13:22;;;;;;;;;;;21.50;57.80;;;17.87;100.00;95480.44;4915807;29;19910;-48
2023/06/20 01:15:52;;;;;;;;;;;21.40;57.90;;;17.80;100.00;95465.53;4946446;28;20008;-47
2023/06/20 01:19:05;;;;;;;;;;;21.40;57.90;;;17.80;100.00;95457.47;4960974;28;19949;-45
2023/06/20 01:21:52;;;;;;;;;;;21.40;58.00;;;17.83;100.00;95447.97;4955861;28;19948;-48
2023/06/20 01:24:41;;;;;;;;;;;21.40;58.10;;;17.80;100.00;95449.38;4943388;28;19926;-47
2023/06/20 01:27:27;;;;;;;;;;;21.40;58.20;;;17.84;100.00;95457.63;4946583;28;19910;-45
2023/06/20 01:30:09;;;;;;;;;;;21.40;58.30;;;17.83;100.00;95466.81;4961662;28;19973;-46
2023/06/20 01:32:46;;;;;;;;;;;21.40;58.40;;;17.84;100.00;95462.22;4963896;28;20000;-48
2023/06/20 01:35:21;;;;;;;;;;;21.40;58.40;;;17.84;100.00;95478.38;4952276;28;19914;-45
2023/06/20 01:38:00;;;;;;;;;;;21.40;58.50;;;17.84;100.00;95484.56;4951956;29;19913;-46
2023/06/20 01:40:28;;;;;;;;;;;21.50;58.60;;;17.86;100.00;95498.50;4966224;28;19910;-47
2023/06/20 01:42:59;;;;;;;;;;;21.50;58.60;;;17.86;100.00;95500.41;4966788;28;19921;-48
2023/06/20 01:45:30;;;;;;;;;;;21.50;58.70;;;17.85;100.00;95506.91;4946253;29;19914;-46
2023/06/20 01:48:02;;;;;;;;;;;21.50;58.80;;;17.88;100.00;95509.75;4959647;28;20288;-46
2023/06/20 01:50:31;;;;;;;;;;;21.50;58.80;;;17.85;100.00;95510.38;4939646;29;19914;-47
2023/06/20 01:53:00;;;;;;;;;;;21.50;58.90;;;17.85;100.00;95515.78;4966816;28;19950;-46
2023/06/20 01:55:29;;;;;;;;;;;21.50;58.90;;;17.85;100.00;95513.09;4952312;28;19949;-50
2023/06/20 01:57:58;;;;;;;;;;;21.50;58.90;;;17.84;100.00;95508.81;4940257;28;19910;-48
2023/06/20 02:00:29;;;;;;;;;;;21.50;58.90;;;17.82;100.00;95515.63;4951718;28;19917;-46
2023/06/20 02:02:58;;;;;;;;;;;21.50;58.90;;;17.83;100.00;95519.88;4955710;28;19922;-45
2023/06/20 02:05:30;;;;;;;;;;;21.50;59.00;;;17.82;100.00;95518.31;4959775;28;20753;-46
2023/06/20 02:07:59;;;;;;;;;;;21.50;59.00;;;17.82;100.00;95510.22;4941862;28;19914;-46
2023/06/20 02:10:27;;;;;;;;;;;21.50;59.10;;;17.81;100.00;95531.00;4944224;28;19917;-45
2023/06/20 02:12:55;;;;;;;;;;;21.50;59.10;;;17.79;100.00;95517.81;4966350;28;20371;-48
2023/06/20 02:15:25;;;;;;;;;;;21.50;59.20;;;17.82;100.00;95511.00;4943472;28;19918;-50
2023/06/20 02:17:51;;;;;;;;;;;21.50;59.20;;;17.80;100.00;95510.56;4961115;28;19933;-48
2023/06/20 02:20:17;;;;;;;;;;;21.50;59.20;;;17.76;100.00;95507.63;4960762;28;19910;-47
2023/06/20 02:22:46;;;;;;;;;;;21.50;59.30;;;17.76;100.00;95504.94;4945582;28;20358;-45
2023/06/20 02:25:23;;;;;;;;;;;21.50;59.30;;;17.76;100.00;95501.44;4939681;28;19914;-45
2023/06/20 02:27:54;;;;;;;;;;;21.50;59.40;;;17.75;100.00;95492.59;4940988;29;19921;-45
2023/06/20 02:30:26;;;;;;;;;;;21.50;59.50;;;17.72;100.00;95489.72;4945533;28;19922;-45
2023/06/20 02:32:56;;;;;;;;;;;21.50;59.60;;;17.72;100.00;95479.75;4957411;28;19924;-46
2023/06/20 02:35:25;;;;;;;;;;;21.50;59.60;;;17.72;100.00;95482.44;4952959;28;19918;-44
2023/06/20 02:37:56;;;;;;;;;;;21.50;59.60;;;17.69;100.00;95477.66;4942815;28;19933;-48
2023/06/20 02:40:23;;;;;;;;;;;21.40;59.60;;;17.67;100.00;95477.16;4962959;28;20445;-46
2023/06/20 02:42:49;;;;;;;;;;;21.40;59.70;;;17.67;100.00;95468.31;4939190;28;19917;-45
2023/06/20 02:45:16;;;;;;;;;;;21.40;59.80;;;17.65;100.00;95474.00;4949424;28;19965;-50
2023/06/20 02:48:02;;;;;;;;;;;21.40;59.90;;;17.65;100.00;95459.75;4946340;28;19914;-45
2023/06/20 02:50:46;;;;;;;;;;;21.40;59.90;;;17.72;100.00;95460.88;4955102;28;20016;-47
2023/06/20 02:53:20;;;;;;;;;;;21.40;60.00;;;17.63;100.00;95460.06;4953829;28;19918;-48
2023/06/20 02:55:58;;;;;;;;;;;21.40;60.10;;;17.65;100.00;95455.16;4945475;28;19921;-47
2023/06/20 02:58:27;;;;;;;;;;;21.40;60.20;;;17.73;100.00;95458.97;4964057;28;19945;-48
2023/06/20 03:00:57;;;;;;;;;;;21.40;60.30;;;17.71;100.00;95453.13;4948698;28;20265;-50
2023/06/20 03:03:34;;;;;;;;;;;21.40;60.30;;;17.67;100.00;95444.84;4942857;28;19961;-48
2023/06/20 03:06:01;;;;;;;;;;;21.40;60.30;;;17.64;100.00;95445.47;4961329;28;19914;-47
2023/06/20 03:08:29;;;;;;;;;;;21.40;60.40;;;17.63;100.00;95430.44;4962558;28;19942;-49
2023/06/20 03:10:58;;;;;;;;;;;21.40;60.40;;;17.61;100.00;95427.25;4963378;28;19945;-47
2023/06/20 03:13:25;;;;;;;;;;;21.40;60.40;;;17.64;100.00;95423.94;4959367;28;19914;-49
2023/06/20 03:15:51;;;;;;;;;;;21.40;61.30;;;17.67;100.00;95433.28;4948552;28;19913;-47
2023/06/20 03:18:18;;;;;;;;;;;21.40;60.60;;;17.61;100.00;95432.63;4952746;28;19909;-50
2023/06/20 03:20:48;;;;;;;;;;;21.40;60.60;;;17.67;100.00;95433.28;4945445;28;20370;-48
2023/06/20 03:23:17;;;;;;;;;;;21.40;60.60;;;17.64;100.00;95433.91;4954328;28;19914;-45
2023/06/20 03:25:43;;;;;;;;;;;21.40;60.60;;;17.63;100.00;95422.34;4952177;28;19993;-49
2023/06/20 03:28:09;;;;;;;;;;;21.40;60.70;;;17.66;100.00;95431.72;4945981;28;20356;-47
2023/06/20 03:30:35;;;;;;;;;;;21.40;60.60;;;17.65;100.00;95438.22;4949303;28;19946;-47
2023/06/20 03:33:01;;;;;;;;;;;21.40;60.70;;;17.69;100.00;95439.16;4954876;28;20008;-46
2023/06/20 03:35:26;;;;;;;;;;;21.40;60.70;;;17.69;100.00;95439.16;4954299;28;19910;-46
2023/06/20 03:37:53;;;;;;;;;;;21.40;60.70;;;17.71;100.00;95435.06;4953748;28;19914;-45
2023/06/20 03:40:18;;;;;;;;;;;21.40;60.80;;;17.65;100.00;95439.00;4941396;28;20625;-50
2023/06/20 03:42:44;;;;;;;;;;;21.40;60.70;;;17.64;100.00;95434.69;4944048;28;19910;-48
2023/06/20 03:45:10;;;;;;;;;;;21.40;60.70;;;17.64;100.00;95429.31;4966728;28;20361;-46
2023/06/20 03:47:36;;;;;;;;;;;21.40;60.60;;;17.64;100.00;95440.09;4950947;28;19910;-49
2023/06/20 03:50:02;;;;;;;;;;;21.40;60.60;;;17.63;100.00;95433.13;4944018;28;19932;-49
2023/06/20 03:52:28;;;;;;;;;;;21.40;60.70;;;17.62;100.00;95439.63;4952858;28;19917;-45
2023/06/20 03:54:53;;;;;;;;;;;21.40;60.70;;;17.61;100.00;95434.53;4950630;28;19910;-49
2023/06/20 03:57:19;;;;;;;;;;;21.40;60.80;;;17.59;100.00;95432.16;4945276;28;20013;-47
2023/06/20 03:59:45;;;;;;;;;;;21.40;60.80;;;17.61;100.00;95442.63;4938726;28;19936;-47
2023/06/20 04:02:11;;;;;;;;;;;21.40;60.90;;;17.63;100.00;95443.91;4944843;28;20274;-48
2023/06/20 04:04:37;;;;;;;;;;;21.40;60.90;;;17.63;100.00;95435.03;4938094;28;19914;-46
2023/06/20 04:07:04;;;;;;;;;;;21.50;60.90;;;17.62;100.00;95433.44;4949170;28;26677;-46
2023/06/20 04:09:30;;;;;;;;;;;21.50;61.00;;;17.65;100.00;95425.53;4941241;28;19984;-47
2023/06/20 04:11:56;;;;;;;;;;;21.50;61.00;;;17.66;100.00;95434.41;4949832;28;20401;-46
2023/06/20 04:14:21;;;;;;;;;;;21.50;60.90;;;17.68;100.00;95430.31;4950472;28;19918;-50
2023/06/20 04:16:49;;;;;;;;;;;21.60;60.90;;;17.70;100.00;95433.44;4944590;28;20103;-50
2023/06/20 04:19:16;;;;;;;;;;;21.60;60.90;;;17.74;100.00;95436.34;4952939;28;19910;-46
2023/06/20 04:21:42;;;;;;;;;;;21.70;60.90;;;17.79;100.00;95430.81;4953659;28;19983;-46
2023/06/20 04:24:08;;;;;;;;;;;21.70;60.90;;;17.82;100.00;95427.50;4943947;28;20008;-46
2023/06/20 04:26:36;;;;;;;;;;;21.80;60.90;;;17.86;100.00;95428.44;4954033;28;19910;-49
2023/06/20 04:29:01;;;;;;;;;;;21.80;60.90;;;17.91;100.00;95428.31;4953506;28;19964;-49
2023/06/20 04:31:29;;;;;;;;;;;21.90;60.90;;;17.96;100.00;95430.06;4952516;23;19922;-47
2023/06/20 04:33:57;;;;;;;;;;;22.00;61.00;;;17.96;100.00;95438.16;4934501;29;20016;-45
2023/06/20 04:36:23;;;;;;;;;;;22.00;61.00;;;18.04;100.00;95435.44;4939547;28;19914;-47
2023/06/20 04:38:49;;;;;;;;;;;22.10;61.20;;;18.10;100.00;95425.31;4920320;29;19915;-46
2023/06/20 04:41:15;;;;;;;;;;;22.20;61.40;;;18.14;100.00;95428.16;4933624;29;20293;-48
2023/06/20 04:43:44;;;;;;;;;;;22.20;61.40;;;18.31;100.00;95436.28;4942465;28;19937;-45
2023/06/20 04:46:15;;;;;;;;;;;22.30;61.30;;;18.43;100.00;95441.84;4933566;29;19910;-46
2023/06/20 04:48:42;;;;;;;;;;;22.40;61.20;;;18.49;100.00;95437.88;4933867;28;20398;-47
2023/06/20 04:51:09;;;;;;;;;;;22.50;61.10;;;18.47;100.00;95434.69;4933489;29;19911;-46
2023/06/20 04:53:36;;;;;;;;;;;22.60;61.40;;;18.54;100.00;95436.09;4943472;28;19915;-46
2023/06/20 04:56:03;;;;;;;;;;;22.70;61.90;;;18.63;100.00;95435.00;4933784;29;19933;-48
2023/06/20 04:58:29;;;;;;;;;;;22.70;61.00;;;18.75;100.00;95437.06;4934363;28;20325;-47
2023/06/20 05:00:57;;;;;;;;;;;22.80;60.90;;;18.87;100.00;95445.31;4940025;28;19910;-50
2023/06/20 05:03:24;;;;;;;;;;;23.00;60.90;;;18.98;100.00;95436.88;4933123;29;20392;-46
2023/06/20 05:05:51;;;;;;;;;;;23.10;60.70;;;19.07;100.00;95433.03;4937302;28;19914;-47
2023/06/20 05:08:17;;;;;;;;;;;23.20;60.50;;;19.15;100.00;95426.03;4939851;28;19917;-49
2023/06/20 05:10:43;;;;;;;;;;;23.30;60.50;;;19.21;100.00;95432.84;4933915;29;19914;-47
2023/06/20 05:13:08;;;;;;;;;;;23.40;60.30;;;19.32;100.00;95438.66;4933136;29;19977;-44
2023/06/20 05:15:35;;;;;;;;;;;23.50;60.10;;;19.38;100.00;95435.47;4933428;29;20381;-45
2023/06/20 05:18:01;;;;;;;;;;;23.70;60.00;;;19.50;100.00;95429.38;4933510;29;19933;-45
2023/06/20 05:20:27;;;;;;;;;;;23.80;59.90;;;19.67;100.00;95431.22;4933582;29;20377;-46
2023/06/20 05:22:53;;;;;;;;;;;24.00;59.80;;;19.94;100.00;95440.78;4933844;29;19914;-48
2023/06/20 05:25:18;;;;;;;;;;;24.20;59.70;;;20.14;100.00;95436.50;4928601;29;19921;-50
2023/06/20 05:27:46;;;;;;;;;;;24.30;59.50;;;20.20;100.00;95431.72;4934381;28;19910;-46
2023/06/20 05:30:12;;;;;;;;;;;24.50;59.40;;;20.23;100.00;95439.94;4926001;29;19910;-47
2023/06/20 05:32:38;;;;;;;;;;;24.60;59.30;;;20.26;100.00;95442.00;4928950;29;19933;-49
2023/06/20 05:35:07;;;;;;;;;;;24.70;59.20;;;20.31;100.00;95446.44;4933488;29;19914;-46
2023/06/20 05:37:34;;;;;;;;;;;24.70;59.00;;;20.33;100.00;95442.25;4932764;29;19914;-45
2023/06/20 05:40:00;;;;;;;;;;;24.80;58.80;;;20.44;100.00;95439.97;4933586;29;19914;-44
2023/06/20 05:42:25;;;;;;;;;;;24.90;58.70;;;20.52;100.00;95433.69;4942509;29;19914;-45
2023/06/20 05:44:51;;;;;;;;;;;24.90;58.70;;;20.58;100.00;95438.91;4935029;28;19922;-45
2023/06/20 05:47:17;;;;;;;;;;;25.00;58.50;;;20.70;100.00;95436.25;4932398;29;19918;-48
2023/06/20 05:49:45;;;;;;;;;;;25.10;58.40;;;20.77;100.00;95431.88;4934038;29;19914;-45
2023/06/20 05:52:11;;;;;;;;;;;25.20;58.90;;;20.83;100.00;95434.38;4933740;29;19950;-45
2023/06/20 05:54:37;;;;;;;;;;;25.30;58.20;;;20.92;100.00;95444.00;4932533;29;19950;-45
2023/06/20 05:57:05;;;;;;;;;;;25.40;58.10;;;21.04;100.00;95440.53;4933345;29;19930;-45
2023/06/20 05:59:32;;;;;;;;;;;25.50;58.00;;;21.17;99.19;95449.50;4932713;29;20017;-44
2023/06/20 06:01:58;;;;;;;;;;;25.70;57.90;;;21.29;97.80;95440.59;4932982;29;19914;-44
2023/06/20 06:04:25;;;;;;;;;;;25.90;57.80;;;21.33;96.32;95444.22;4933825;29;19942;-48
2023/06/20 06:06:51;;;;;;;;;;;26.10;58.20;;;21.47;93.96;95437.38;4932560;29;20005;-47
2023/06/20 06:09:17;;;;;;;;;;;26.30;57.30;;;21.60;93.23;95434.69;4933573;29;19933;-46
2023/06/20 06:11:43;;;;;;;;;;;26.50;57.00;;;21.68;92.20;95439.97;4932700;29;19914;-47
2023/06/20 06:14:09;;;;;;;;;;;26.60;56.70;;;21.78;91.07;95440.66;4947070;28;20285;-45
2023/06/20 06:16:35;;;;;;;;;;;26.90;56.50;;;22.07;89.44;95435.00;4936650;29;20373;-47
2023/06/20 06:19:02;;;;;;;;;;;27.10;56.20;;;22.34;87.84;95432.69;4936675;28;20012;-45
2023/06/20 06:21:28;;;;;;;;;;;27.20;56.10;;;22.56;86.57;95436.81;4937184;29;20436;-45
2023/06/20 06:23:54;;;;;;;;;;;27.40;56.00;;;22.74;85.80;95431.88;4936311;29;19922;-45
2023/06/20 06:26:19;;;;;;;;;;;27.70;55.90;;;22.86;85.49;95438.06;4937035;28;19914;-45
2023/06/20 06:28:45;;;;;;;;;;;27.90;55.70;;;22.95;82.89;95437.16;4937153;29;20488;-45
2023/06/20 06:31:15;;;;;;;;;;;28.00;55.40;;;23.03;83.60;95433.47;4935868;29;19925;-45
2023/06/20 06:33:42;;;;;;;;;;;28.20;55.20;;;23.30;83.32;95429.13;4947971;28;19911;-45
2023/06/20 06:36:10;;;;;;;;;;;28.40;55.00;;;23.40;81.15;95431.31;4928794;29;19911;-44
2023/06/20 06:38:37;;;;;;;;;;;28.60;54.70;;;23.57;81.13;95432.91;4935577;29;20524;-45
2023/06/20 06:41:03;;;;;;;;;;;28.70;54.40;;;23.74;81.79;95432.56;4932280;29;19957;-46
2023/06/20 06:43:29;;;;;;;;;;;28.90;54.20;;;24.02;79.15;95428.94;4946323;28;19965;-45
2023/06/20 06:45:56;;;;;;;;;;;29.10;54.10;;;24.16;81.07;95423.81;4949758;28;20021;-45
2023/06/20 06:48:22;;;;;;;;;;;29.30;54.00;;;24.27;77.42;95415.88;4936037;29;19914;-45
2023/06/20 06:50:48;;;;;;;;;;;29.40;53.70;;;24.26;76.21;95416.25;4936585;29;19911;-45
2023/06/20 06:53:13;;;;;;;;;;;29.60;53.40;;;24.17;76.33;95409.06;4940804;28;19910;-45
2023/06/20 06:55:46;;;;;;;;;;;29.60;53.10;;;24.33;74.83;95417.19;4936492;29;19938;-45
2023/06/20 06:58:11;;;;;;;;;;;29.70;53.40;;;24.49;74.33;95408.97;4936943;29;19922;-45
2023/06/20 07:00:37;;;;;;;;;;;29.70;52.60;;;24.61;73.06;95413.50;4928472;28;19914;-47
2023/06/20 07:03:04;;;;;;;;;;;29.90;52.50;;;24.70;71.32;95412.13;4936774;29;19911;-47
2023/06/20 07:05:30;;;;;;;;;;;30.00;52.30;;;24.85;70.42;95409.66;4934948;29;19910;-47
2023/06/20 07:07:56;;;;;;;;;;;30.20;51.90;;;24.96;70.04;95416.13;4936435;29;19917;-45
2023/06/20 07:10:21;;;;;;;;;;;30.30;52.20;;;25.03;71.90;95416.25;4936182;29;19911;-46
2023/06/20 07:12:47;;;;;;;;;;;30.40;51.30;;;25.21;71.62;95404.91;4933893;29;19937;-52
2023/06/20 07:15:13;;;;;;;;;;;30.60;51.20;;;25.30;69.88;95402.72;4935842;29;20004;-47
2023/06/20 07:17:39;;;;;;;;;;;30.80;51.00;;;25.52;70.48;95399.22;4935331;29;19918;-50
2023/06/20 07:20:08;;;;;;;;;;;30.90;50.80;;;25.75;69.16;95399.16;4935774;29;20340;-46
2023/06/20 07:22:34;;;;;;;;;;;31.20;50.70;;;26.05;68.26;95399.25;4936192;29;19910;-46
2023/06/20 07:25:00;;;;;;;;;;;31.30;50.40;;;26.27;67.24;95385.91;4934633;29;19968;-45
2023/06/20 07:27:25;;;;;;;;;;;31.60;50.20;;;26.42;65.58;95384.13;4935277;29;19910;-47
2023/06/20 07:29:51;;;;;;;;;;;31.70;49.90;;;26.63;65.08;95394.56;4936249;28;20435;-47
2023/06/20 07:32:18;;;;;;;;;;;31.90;49.70;;;26.75;65.33;95389.63;4935469;29;20037;-46
2023/06/20 07:34:44;;;;;;;;;;;32.20;49.60;;;26.92;63.42;95384.72;4935602;29;19923;-46
2023/06/20 07:37:10;;;;;;;;;;;32.40;49.20;;;26.86;63.78;95387.03;4935208;29;19941;-48
2023/06/20 07:39:41;;;;;;;;;;;32.60;48.80;;;26.90;61.31;95379.66;4935757;29;19945;-49
2023/06/20 07:42:07;;;;;;;;;;;32.70;48.50;;;27.07;62.76;95386.44;4935061;29;20385;-45
2023/06/20 07:44:33;;;;;;;;;;;32.80;48.20;;;26.72;63.60;95375.94;4935365;29;20344;-46
2023/06/20 07:46:59;;;;;;;;;;;32.90;47.80;;;27.00;64.06;95370.78;4935788;29;19914;-48
2023/06/20 07:49:24;;;;;;;;;;;33.00;47.70;;;26.95;62.23;95384.78;4935202;29;19910;-47
2023/06/20 07:51:50;;;;;;;;;;;33.10;47.60;;;27.24;62.63;95376.09;4935673;29;19973;-49
2023/06/20 07:54:16;;;;;;;;;;;33.20;47.30;;;27.56;62.77;95365.44;4938402;28;20349;-47
2023/06/20 07:56:41;;;;;;;;;;;33.30;47.10;;;27.50;62.73;95359.53;4935207;29;19973;-46
2023/06/20 07:59:07;;;;;;;;;;;33.50;47.00;;;27.85;62.27;95363.69;4935131;28;19926;-47
2023/06/20 08:01:33;;;;;;;;;;;33.60;47.00;;;27.95;63.26;95379.41;4943661;28;19910;-45
2023/06/20 08:03:59;;;;;;;;;;;33.80;46.70;;;28.05;58.36;95369.72;4934676;29;19918;-49
2023/06/20 08:06:24;;;;;;;;;;;34.00;46.60;;;28.42;58.48;95368.72;4935157;29;19933;-47
2023/06/20 08:08:50;;;;;;;;;;;34.10;46.30;;;28.54;58.20;95362.91;4935454;29;19911;-49
2023/06/20 08:11:24;;;;;;;;;;;34.40;46.10;;;28.79;55.43;95358.28;4935039;29;20377;-49
2023/06/20 08:13:50;;;;;;;;;;;34.60;45.80;;;28.90;56.04;95358.34;4933403;29;19914;-47
2023/06/20 08:16:17;;;;;;;;;;;34.70;45.50;;;28.88;56.90;95363.41;4934599;29;19997;-50
2023/06/20 08:18:43;;;;;;;;;;;34.90;45.30;;;28.95;56.43;95351.66;4934375;29;19961;-50
2023/06/20 08:21:08;;;;;;;;;;;34.90;45.00;;;29.04;55.22;95347.41;4935241;29;20377;-49
2023/06/20 08:23:34;;;;;;;;;;;35.00;44.80;;;28.99;54.19;95345.03;4934209;29;20266;-50
2023/06/20 08:26:00;;;;;;;;;;;35.10;44.60;;;29.11;56.17;95341.16;4934733;28;19910;-49
2023/06/20 08:28:26;;;;;;;;;;;35.30;44.40;;;29.03;54.18;95339.59;4935294;29;19918;-48
2023/06/20 08:30:53;;;;;;;;;;;35.50;44.20;;;29.13;56.03;95341.53;4933505;28;19922;-53
2023/06/20 08:33:20;;;;;;;;;;;35.50;43.90;;;28.94;55.63;95337.19;4934796;29;19919;-49
2023/06/20 08:35:46;;;;;;;;;;;35.70;43.80;;;29.35;54.60;95336.06;4934025;29;20377;-46
2023/06/20 08:38:12;;;;;;;;;;;35.70;43.60;;;29.20;55.34;95332.53;4934681;29;20002;-47
2023/06/20 08:40:39;;;;;;;;;;;35.80;43.30;;;29.19;55.39;95331.75;4934854;29;19915;-46
2023/06/20 08:43:06;;;;;;;;;;;35.90;43.10;;;29.18;54.89;95332.16;4934011;29;20016;-49
2023/06/20 08:45:32;;;;;;;;;;;36.00;42.90;;;29.19;55.63;95320.78;4934130;29;20379;-50
2023/06/20 08:47:58;;;;;;;;;;;36.10;42.70;;;29.58;56.10;95322.72;4933730;29;19910;-53
2023/06/20 08:50:28;;;;;;;;;;;36.10;43.20;;;29.76;54.50;95313.72;4934718;29;20001;-49
2023/06/20 08:52:59;;;;;;;;;;;36.20;42.50;;;29.92;53.91;95314.84;4934350;29;19910;-48
2023/06/20 08:55:27;;;;;;;;;;;36.30;42.40;;;30.05;54.05;95315.22;4943142;28;20444;-50
2023/06/20 08:57:53;;;;;;;;;;;36.40;42.20;;;30.23;52.25;95320.69;4949114;28;19960;-48
2023/06/20 09:00:21;;;;;;;;;;;36.50;42.00;;;30.51;52.31;95317.03;4941250;28;20320;-54
2023/06/20 09:02:48;;;;;;;;;;;36.60;41.90;;;30.40;51.93;95317.09;4934164;29;19910;-54
2023/06/20 09:05:14;;;;;;;;;;;36.70;41.70;;;30.31;51.13;95313.22;4933577;29;20362;-51
2023/06/20 09:07:41;;;;;;;;;;;36.80;41.50;;;30.56;52.64;95307.59;4933668;29;20017;-50
2023/06/20 09:10:10;;;;;;;;;;;36.90;41.30;;;30.56;49.49;95308.38;4934245;29;19938;-50
2023/06/20 09:12:54;;;;;;;;;;;37.00;41.10;;;30.86;49.80;95299.59;4931090;29;20324;-55
2023/06/20 09:15:26;;;;;;;;;;;37.20;41.50;;;31.01;50.23;95294.78;4932729;29;19918;-52
2023/06/20 09:17:54;;;;;;;;;;;37.40;40.70;;;30.89;51.95;95298.00;4937825;28;20278;-54
2023/06/20 09:20:25;;;;;;;;;;;37.50;41.20;;;31.15;50.05;95296.66;4935400;28;20017;-50
2023/06/20 09:22:50;;;;;;;;;;;37.60;41.00;;;31.10;50.37;95297.06;4933978;29;19914;-47
2023/06/20 09:25:22;;;;;;;;;;;37.60;40.20;;;30.38;52.41;95296.69;4932399;29;20381;-53
2023/06/20 09:27:50;;;;;;;;;;;37.60;40.00;;;30.56;51.64;95297.38;4934036;29;19941;-54
2023/06/20 09:30:16;;;;;;;;;;;37.60;39.90;;;30.87;51.60;95295.66;4933075;29;19910;-52
2023/06/20 09:32:43;;;;;;;;;;;37.60;39.70;;;31.34;48.59;95301.63;4933677;29;20021;-55
2023/06/20 09:35:14;;;;;;;;;;;37.70;39.70;;;31.48;51.15;95294.44;4933716;29;19910;-55
2023/06/20 09:37:51;;;;;;;;;;;37.90;39.70;;;31.24;49.19;95291.44;4933747;29;19965;-51
2023/06/20 09:40:20;;;;;;;;;;;38.10;39.60;;;31.56;47.78;95290.44;4934050;29;19914;-54
2023/06/20 09:42:47;;;;;;;;;;;38.10;39.40;;;32.01;48.77;95287.63;4932816;29;20006;-52
2023/06/20 09:45:16;;;;;;;;;;;38.30;39.30;;;31.70;49.99;95282.03;4933774;29;19919;-55
2023/06/20 09:47:44;;;;;;;;;;;38.30;39.00;;;32.08;47.54;95282.03;4932454;29;19918;-54
2023/06/20 09:50:19;;;;;;;;;;;38.50;38.90;;;32.29;47.90;95282.97;4936139;29;19957;-55
2023/06/20 09:53:04;;;;;;;;;;;38.60;38.60;;;32.33;47.51;95278.97;4937472;28;19926;-53
2023/06/20 09:55:35;;;;;;;;;;;38.80;38.60;;;32.27;48.48;95275.13;4950816;28;20560;-49
2023/06/20 09:58:04;;;;;;;;;;;39.00;38.50;;;32.35;45.45;95276.59;4937626;29;19914;-53
2023/06/20 10:00:31;;;;;;;;;;;39.10;38.20;;;32.33;45.96;95275.44;4936298;29;20013;-53
2023/06/20 10:03:06;;;;;;;;;;;39.20;37.90;;;32.43;45.81;95269.81;4937267;29;19910;-53
2023/06/20 10:05:33;;;;;;;;;;;39.20;37.60;;;32.30;46.33;95260.50;4948834;28;19918;-53
2023/06/20 10:08:00;;;;;;;;;;;39.30;37.40;;;32.54;47.60;95263.41;4928007;29;19918;-50
2023/06/20 10:10:26;;;;;;;;;;;39.30;37.30;;;32.69;46.09;95271.06;4937529;29;20302;-53
2023/06/20 10:12:54;;;;;;;;;;;39.40;37.40;;;32.51;45.86;95264.22;4939351;28;19938;-55
2023/06/20 10:15:21;;;;;;;;;;;39.50;37.30;;;32.84;44.64;95271.59;4935379;29;19961;-54
2023/06/20 10:17:47;;;;;;;;;;;39.50;37.10;;;33.09;46.06;95267.72;4950884;28;19910;-50
2023/06/20 10:20:37;;;;;;;;;;;39.60;37.00;;;32.99;46.46;95261.16;4937002;29;20448;-54
2023/06/20 10:23:09;;;;;;;;;;;39.80;37.00;;;32.88;46.03;95255.81;4936941;29;20424;-54
2023/06/20 10:25:52;;;;;;;;;;;40.00;36.90;;;32.82;46.08;95262.97;4935266;29;19950;-55
2023/06/20 10:28:21;;;;;;;;;;;40.20;36.60;;;32.84;44.93;95268.84;4937042;29;19962;-54
2023/06/20 10:30:48;;;;;;;;;;;40.30;36.50;;;32.83;45.05;95258.25;4950207;28;19919;-52
2023/06/20 10:33:37;;;;;;;;;;;40.30;36.30;;;32.92;46.34;95259.28;4934749;28;19911;-54
2023/06/20 10:36:09;;;;;;;;;;;40.40;36.20;;;33.18;46.23;95251.41;4936561;29;20315;-52
2023/06/20 10:38:51;;;;;;;;;;;40.60;36.10;;;33.45;43.71;95254.13;4931366;29;20013;-51
2023/06/20 10:41:28;;;;;;;;;;;40.80;35.90;;;33.52;43.35;95256.78;4943731;28;19910;-49
2023/06/20 10:44:01;;;;;;;;;;;40.90;35.70;;;33.84;42.69;95247.88;4949047;28;19922;-50
2023/06/20 10:46:47;;;;;;;;;;;41.00;35.60;;;33.57;42.77;95250.78;4937308;29;20341;-52
2023/06/20 10:49:14;;;;;;;;;;;41.10;35.20;;;33.62;44.27;95252.25;4936365;29;19921;-55
2023/06/20 10:51:49;;;;;;;;;;;41.10;35.10;;;33.76;42.97;95254.00;4936256;29;20278;-54
2023/06/20 10:54:17;;;;;;;;;;;41.20;34.80;;;34.11;43.68;95251.75;4936579;29;20383;-52
2023/06/20 10:56:44;;;;;;;;;;;41.30;34.60;;;33.99;42.28;95258.66;4937382;29;19915;-52
2023/06/20 10:59:27;;;;;;;;;;;41.60;34.40;;;34.19;43.31;95244.88;4937123;29;19910;-54
2023/06/20 11:01:53;;;;;;;;;;;41.80;34.30;;;34.31;41.23;95242.22;4932019;29;19942;-55
2023/06/20 11:04:20;;;;;;;;;;;41.80;34.30;;;34.21;41.01;95246.00;4937157;29;19981;-50
2023/06/20 11:06:47;;;;;;;;;;;41.60;34.30;;;34.24;42.45;95241.63;4956832;28;19914;-52
2023/06/20 11:09:24;;;;;;;;;;;41.30;34.30;;;33.89;41.40;95252.16;4937246;29;19925;-51
2023/06/20 11:11:51;;;;;;;;;;;41.10;34.30;;;34.11;42.00;95246.25;4935094;29;20009;-53
2023/06/20 11:14:22;;;;;;;;;;;41.10;34.20;;;34.40;42.03;95243.66;4937397;29;20488;-54
2023/06/20 11:16:51;;;;;;;;;;;41.10;34.20;;;34.30;41.53;95232.38;4937202;29;19915;-55
2023/06/20 11:19:28;;;;;;;;;;;41.30;34.20;;;34.26;43.39;95223.41;4940517;28;19917;-55